createdAt,value
2023-10-06T00:02:02.411Z,14.50
2023-10-06T00:04:09.348Z,14.40
2023-10-06T00:06:15.108Z,14.40
2023-10-06T00:08:22.577Z,14.40
2023-10-06T00:10:28.636Z,14.30
2023-10-06T00:12:34.581Z,14.40
2023-10-06T00:14:44.836Z,14.30
2023-10-06T00:16:51.114Z,14.30
2023-10-06T00:19:00.678Z,14.30
2023-10-06T00:21:08.656Z,14.10
2023-10-06T00:23:16.142Z,14.00
2023-10-06T00:25:25.948Z,13.90
2023-10-06T00:27:32.271Z,13.90
2023-10-06T00:29:38.362Z,13.90
2023-10-06T00:31:43.071Z,13.90
2023-10-06T00:34:02.910Z,13.90
2023-10-06T00:36:13.533Z,13.90
2023-10-06T00:38:18.862Z,13.90
2023-10-06T00:40:26.458Z,13.80
2023-10-06T00:42:30.774Z,13.80
2023-10-06T00:44:33.366Z,13.90
2023-10-06T00:46:46.384Z,13.90
2023-10-06T00:48:54.958Z,13.90
2023-10-06T00:50:59.467Z,13.90
2023-10-06T00:53:05.519Z,13.90
2023-10-06T00:55:12.195Z,13.90
2023-10-06T00:57:20.712Z,13.90
2023-10-06T00:59:25.038Z,14.00
2023-10-06T01:01:28.701Z,14.00
2023-10-06T01:03:40.065Z,14.00
2023-10-06T01:05:47.991Z,13.90
2023-10-06T01:07:52.046Z,14.00
2023-10-06T01:09:58.430Z,13.90
2023-10-06T01:12:08.451Z,13.90
2023-10-06T01:14:15.902Z,13.90
2023-10-06T01:16:19.612Z,13.90
2023-10-06T01:18:25.390Z,13.80
2023-10-06T01:20:35.335Z,13.90
2023-10-06T01:22:45.386Z,13.90
2023-10-06T01:24:48.937Z,13.80
2023-10-06T01:27:07.272Z,13.80
2023-10-06T01:29:15.256Z,13.80
2023-10-06T01:31:20.761Z,13.80
2023-10-06T01:33:25.801Z,13.90
2023-10-06T01:35:34.925Z,13.90
2023-10-06T01:37:42.622Z,13.90
2023-10-06T01:39:49.816Z,13.90
2023-10-06T01:41:54.502Z,13.90
2023-10-06T01:43:58.209Z,13.90
2023-10-06T01:46:02.054Z,13.90
2023-10-06T01:48:23.550Z,13.90
2023-10-06T01:50:28.702Z,13.90
2023-10-06T01:52:32.504Z,13.90
2023-10-06T01:54:37.434Z,13.80
2023-10-06T01:56:41.952Z,13.80
2023-10-06T01:58:45.467Z,13.80
2023-10-06T02:00:59.448Z,13.70
2023-10-06T02:03:03.146Z,13.70
2023-10-06T02:05:09.133Z,13.70
2023-10-06T02:07:12.116Z,13.70
2023-10-06T02:09:19.392Z,13.70
2023-10-06T02:11:29.043Z,13.60
2023-10-06T02:13:31.538Z,13.60
2023-10-06T02:15:35.559Z,13.50
2023-10-06T02:17:39.433Z,13.50
2023-10-06T02:19:44.494Z,13.40
2023-10-06T02:21:50.419Z,13.40
2023-10-06T02:23:56.921Z,13.40
2023-10-06T02:26:01.231Z,13.40
2023-10-06T02:28:10.094Z,13.40
2023-10-06T02:30:17.083Z,13.30
2023-10-06T02:32:20.663Z,13.30
2023-10-06T02:34:30.500Z,13.30
2023-10-06T02:36:35.278Z,13.30
2023-10-06T02:38:48.136Z,13.40
2023-10-06T02:40:51.705Z,13.40
2023-10-06T02:43:08.344Z,13.40
2023-10-06T02:45:17.960Z,13.50
2023-10-06T02:47:22.862Z,13.50
2023-10-06T02:49:35.616Z,13.60
2023-10-06T02:51:48.713Z,13.50
2023-10-06T02:53:52.733Z,13.50
2023-10-06T02:55:58.144Z,13.50
2023-10-06T02:58:01.748Z,13.60
2023-10-06T03:00:31.294Z,13.60
2023-10-06T03:02:36.402Z,13.60
2023-10-06T03:04:41.402Z,13.60
2023-10-06T03:06:54.052Z,13.60
2023-10-06T03:08:58.026Z,13.60
2023-10-06T03:11:02.624Z,13.60
2023-10-06T03:13:09.512Z,13.70
2023-10-06T03:15:29.871Z,13.60
2023-10-06T03:17:35.729Z,13.60
2023-10-06T03:19:42.263Z,13.50
2023-10-06T03:21:47.007Z,13.60
2023-10-06T03:23:59.261Z,13.60
2023-10-06T03:26:04.718Z,13.60
2023-10-06T03:28:12.384Z,13.60
2023-10-06T03:30:26.776Z,13.60
2023-10-06T03:32:34.276Z,13.60
2023-10-06T03:34:39.401Z,13.60
2023-10-06T03:36:47.564Z,13.60
2023-10-06T03:38:59.610Z,13.50
2023-10-06T03:41:24.596Z,13.50
2023-10-06T03:43:37.103Z,13.50
2023-10-06T03:45:41.663Z,13.50
2023-10-06T03:47:44.763Z,13.40
2023-10-06T03:49:49.899Z,13.50
2023-10-06T03:51:53.073Z,13.40
2023-10-06T03:53:57.591Z,13.40
2023-10-06T03:56:02.389Z,13.40
2023-10-06T03:58:06.759Z,13.40
2023-10-06T04:02:53.761Z,13.30
2023-10-06T04:04:58.691Z,13.30
2023-10-06T04:07:03.410Z,13.20
2023-10-06T04:09:08.882Z,13.20
2023-10-06T04:11:14.947Z,13.20
2023-10-06T04:13:19.166Z,13.20
2023-10-06T04:15:21.667Z,13.10
2023-10-06T04:17:25.174Z,13.10
2023-10-06T04:19:28.701Z,13.10
2023-10-06T04:21:35.797Z,13.10
2023-10-06T04:23:43.142Z,13.10
2023-10-06T04:25:47.768Z,13.10
2023-10-06T04:27:51.125Z,13.20
2023-10-06T04:29:54.808Z,13.20
2023-10-06T04:31:58.433Z,13.20
2023-10-06T04:34:02.499Z,13.30
2023-10-06T04:36:09.823Z,13.30
2023-10-06T04:38:14.093Z,13.30
2023-10-06T04:40:21.377Z,13.30
2023-10-06T04:42:25.525Z,13.30
2023-10-06T04:44:30.061Z,13.30
2023-10-06T04:46:36.406Z,13.30
2023-10-06T04:48:39.536Z,13.20
2023-10-06T04:50:43.904Z,13.20
2023-10-06T04:52:48.172Z,13.10
2023-10-06T04:54:53.392Z,13.10
2023-10-06T04:57:09.803Z,13.00
2023-10-06T04:59:15.177Z,13.00
2023-10-06T05:01:19.075Z,13.10
2023-10-06T05:03:22.791Z,13.10
2023-10-06T05:05:28.163Z,13.00
2023-10-06T05:07:32.801Z,13.10
2023-10-06T05:09:40.826Z,13.00
2023-10-06T05:11:47.459Z,13.00
2023-10-06T05:13:55.150Z,13.10
2023-10-06T05:15:59.935Z,13.10
2023-10-06T05:18:04.580Z,13.10
2023-10-06T05:20:20.706Z,13.00
2023-10-06T05:22:24.245Z,13.00
2023-10-06T05:24:27.778Z,13.00
2023-10-06T05:26:34.415Z,13.00
2023-10-06T05:28:39.996Z,12.90
2023-10-06T05:30:43.873Z,12.90
2023-10-06T05:32:47.664Z,12.90
2023-10-06T05:34:51.670Z,12.90
2023-10-06T05:36:56.091Z,12.90
2023-10-06T05:39:01.058Z,12.90
2023-10-06T05:41:13.061Z,12.90
2023-10-06T05:43:17.572Z,12.90
2023-10-06T05:45:22.611Z,12.90
2023-10-06T05:47:25.188Z,12.90
2023-10-06T05:49:33.796Z,12.90
2023-10-06T05:51:39.978Z,12.90
2023-10-06T05:53:45.533Z,12.90
2023-10-06T05:55:51.265Z,13.00
2023-10-06T05:57:57.270Z,13.00
2023-10-06T06:00:02.338Z,13.00
2023-10-06T06:02:11.056Z,13.00
2023-10-06T06:04:16.723Z,13.10
2023-10-06T06:06:24.390Z,13.10
2023-10-06T06:08:31.641Z,13.10
2023-10-06T06:10:36.486Z,13.20
2023-10-06T06:12:40.755Z,13.30
2023-10-06T06:14:45.829Z,13.40
2023-10-06T06:16:49.888Z,13.60
2023-10-06T06:18:55.114Z,13.60
2023-10-06T06:21:03.447Z,13.70
2023-10-06T06:23:10.316Z,13.90
2023-10-06T06:25:14.301Z,14.00
2023-10-06T06:27:18.310Z,14.10
2023-10-06T06:29:22.599Z,14.20
2023-10-06T06:31:27.707Z,14.20
2023-10-06T06:33:34.159Z,14.30
2023-10-06T06:35:40.375Z,14.30
2023-10-06T06:37:44.547Z,14.30
2023-10-06T06:39:49.808Z,14.20
2023-10-06T06:41:58.348Z,14.30
2023-10-06T06:44:02.744Z,14.30
2023-10-06T06:46:09.200Z,14.50
2023-10-06T06:48:14.855Z,14.60
2023-10-06T06:50:19.811Z,14.70
2023-10-06T06:52:24.954Z,14.90
2023-10-06T06:54:28.760Z,14.90
2023-10-06T06:56:33.115Z,15.00
2023-10-06T06:58:38.715Z,15.30
2023-10-06T07:00:43.158Z,15.40
2023-10-06T07:02:46.631Z,15.70
2023-10-06T07:04:50.509Z,15.90
2023-10-06T07:06:55.229Z,16.20
2023-10-06T07:09:01.233Z,16.40
2023-10-06T07:11:11.600Z,16.60
2023-10-06T07:13:15.396Z,16.80
2023-10-06T07:15:20.394Z,17.00
2023-10-06T07:17:26.334Z,17.20
2023-10-06T07:19:30.842Z,17.40
2023-10-06T07:21:37.007Z,17.50
2023-10-06T07:23:41.858Z,17.60
2023-10-06T07:25:50.219Z,17.70
2023-10-06T07:27:56.966Z,17.80
2023-10-06T07:30:05.482Z,18.00
2023-10-06T07:32:09.586Z,18.10
2023-10-06T07:34:15.569Z,18.30
2023-10-06T07:36:20.750Z,18.30
2023-10-06T07:38:25.935Z,18.30
2023-10-06T07:40:31.315Z,18.40
2023-10-06T07:42:41.511Z,18.50
2023-10-06T07:44:46.712Z,18.60
2023-10-06T07:46:53.881Z,18.60
2023-10-06T07:48:59.174Z,18.70
2023-10-06T07:51:07.381Z,18.80
2023-10-06T07:53:11.354Z,18.80
2023-10-06T07:55:14.133Z,19.00
2023-10-06T07:57:18.003Z,19.00
2023-10-06T07:59:23.561Z,19.20
2023-10-06T08:01:28.831Z,19.30
2023-10-06T08:03:34.343Z,19.30
2023-10-06T08:05:39.570Z,19.40
2023-10-06T08:07:44.180Z,19.40
2023-10-06T08:09:49.108Z,19.60
2023-10-06T08:11:55.938Z,19.80
2023-10-06T08:14:00.209Z,19.80
2023-10-06T08:16:08.560Z,19.90
2023-10-06T08:18:13.571Z,20.10
2023-10-06T08:20:17.765Z,20.10
2023-10-06T08:22:23.801Z,20.20
2023-10-06T08:24:28.122Z,20.20
2023-10-06T08:26:38.540Z,20.30
2023-10-06T08:28:42.540Z,20.40
2023-10-06T08:30:47.022Z,20.50
2023-10-06T08:32:54.196Z,20.70
2023-10-06T08:34:57.644Z,20.90
2023-10-06T08:37:05.777Z,21.00
2023-10-06T08:39:10.895Z,21.10
2023-10-06T08:41:17.418Z,21.10
2023-10-06T08:43:22.619Z,21.10
2023-10-06T08:45:32.626Z,21.00
2023-10-06T08:47:49.106Z,21.20
2023-10-06T08:50:02.857Z,21.30
2023-10-06T08:52:08.051Z,21.40
2023-10-06T08:54:15.187Z,21.60
2023-10-06T08:56:54.046Z,21.70
2023-10-06T08:58:57.891Z,21.80
2023-10-06T09:01:06.457Z,21.90
2023-10-06T09:03:11.186Z,21.90
2023-10-06T09:05:18.359Z,22.00
2023-10-06T09:07:23.165Z,22.00
2023-10-06T09:09:30.680Z,22.10
2023-10-06T09:11:45.043Z,22.20
2023-10-06T09:13:49.050Z,22.20
2023-10-06T09:15:58.509Z,22.20
2023-10-06T09:18:20.660Z,22.20
2023-10-06T09:20:33.581Z,22.30
2023-10-06T09:22:59.101Z,22.50
2023-10-06T09:25:06.191Z,22.60
2023-10-06T09:27:27.032Z,22.70
2023-10-06T09:29:34.339Z,22.70
2023-10-06T09:34:26.132Z,22.70
2023-10-06T09:36:44.369Z,22.80
2023-10-06T09:38:49.798Z,22.90
2023-10-06T09:40:55.121Z,23.00
2023-10-06T09:42:59.404Z,23.10
2023-10-06T09:45:09.130Z,23.20
2023-10-06T09:47:13.379Z,23.20
2023-10-06T09:49:19.760Z,23.10
2023-10-06T09:51:24.944Z,23.00
2023-10-06T09:53:32.248Z,22.80
2023-10-06T09:55:36.964Z,22.60
2023-10-06T09:57:42.965Z,22.80
2023-10-06T09:59:49.131Z,23.00
2023-10-06T10:01:53.218Z,23.20
2023-10-06T10:04:00.131Z,23.40
2023-10-06T10:06:06.266Z,23.60
2023-10-06T10:08:10.338Z,23.80
2023-10-06T10:10:15.671Z,24.00
2023-10-06T10:12:24.676Z,24.10
2023-10-06T10:14:50.784Z,24.20
2023-10-06T10:17:04.789Z,24.50
2023-10-06T10:19:12.671Z,24.60
2023-10-06T10:21:17.112Z,24.70
2023-10-06T10:23:22.407Z,24.80
2023-10-06T10:25:28.410Z,24.80
2023-10-06T10:27:34.577Z,24.80
2023-10-06T10:29:38.963Z,24.80
2023-10-06T10:32:00.092Z,24.90
2023-10-06T10:34:19.014Z,24.90
2023-10-06T10:36:28.752Z,24.90
2023-10-06T10:38:36.297Z,24.70
2023-10-06T10:40:51.494Z,24.70
2023-10-06T10:43:02.346Z,24.40
2023-10-06T10:45:32.034Z,24.20
2023-10-06T10:47:36.248Z,24.20
2023-10-06T10:49:44.157Z,24.40
2023-10-06T10:52:09.983Z,24.60
2023-10-06T10:54:24.249Z,24.80
2023-10-06T10:56:38.304Z,24.90
2023-10-06T10:59:19.878Z,24.90
2023-10-06T11:01:25.454Z,25.00
2023-10-06T11:03:30.318Z,25.00
2023-10-06T11:05:34.381Z,24.90
2023-10-06T11:07:38.337Z,25.00
2023-10-06T11:09:52.186Z,25.00
2023-10-06T11:12:11.739Z,25.10
2023-10-06T11:14:23.656Z,25.10
2023-10-06T11:16:28.003Z,25.10
2023-10-06T11:18:36.821Z,25.10
2023-10-06T11:20:43.416Z,25.20
2023-10-06T11:22:56.088Z,25.10
2023-10-06T11:25:07.427Z,25.20
2023-10-06T11:27:21.436Z,25.10
2023-10-06T11:29:36.405Z,25.00
2023-10-06T11:31:40.317Z,25.00
2023-10-06T11:33:44.477Z,25.10
2023-10-06T11:35:48.540Z,25.10
2023-10-06T11:37:54.391Z,25.00
2023-10-06T11:39:59.186Z,25.00
2023-10-06T11:42:38.152Z,25.10
2023-10-06T11:44:43.950Z,25.00
2023-10-06T11:46:58.055Z,25.00
2023-10-06T11:49:11.975Z,24.90
2023-10-06T11:51:16.999Z,25.00
2023-10-06T11:53:25.286Z,25.10
2023-10-06T11:55:37.124Z,25.00
2023-10-06T11:57:55.798Z,25.00
2023-10-06T12:00:02.654Z,25.00
2023-10-06T12:02:11.557Z,25.10
2023-10-06T12:04:28.105Z,25.30
2023-10-06T12:06:40.253Z,25.30
2023-10-06T12:08:45.262Z,25.40
2023-10-06T12:10:51.984Z,25.40
2023-10-06T12:12:57.652Z,25.30
2023-10-06T12:15:02.837Z,25.30
2023-10-06T12:17:07.679Z,25.10
2023-10-06T12:19:12.748Z,25.00
2023-10-06T12:21:17.393Z,25.00
2023-10-06T12:23:32.008Z,25.00
2023-10-06T12:25:37.780Z,24.90
2023-10-06T12:27:45.221Z,25.10
2023-10-06T12:29:56.818Z,25.10
2023-10-06T12:32:02.982Z,25.20
2023-10-06T12:34:09.875Z,25.20
2023-10-06T12:36:14.264Z,25.20
2023-10-06T12:38:17.518Z,25.20
2023-10-06T12:40:21.726Z,25.20
2023-10-06T12:42:25.571Z,25.10
2023-10-06T12:44:29.620Z,25.10
2023-10-06T12:46:35.289Z,25.20
2023-10-06T12:48:40.424Z,25.20
2023-10-06T12:50:46.595Z,25.20
2023-10-06T12:52:53.806Z,25.20
2023-10-06T12:54:57.516Z,25.30
2023-10-06T12:57:01.706Z,25.40
2023-10-06T12:59:05.768Z,25.40
2023-10-06T13:01:10.383Z,25.30
2023-10-06T13:03:18.752Z,25.20
2023-10-06T13:05:24.360Z,25.20
2023-10-06T13:07:32.695Z,25.20
2023-10-06T13:09:37.944Z,25.30
2023-10-06T13:11:46.351Z,25.30
2023-10-06T13:13:51.600Z,25.30
2023-10-06T13:15:56.161Z,25.40
2023-10-06T13:18:01.845Z,25.40
2023-10-06T13:20:09.508Z,25.50
2023-10-06T13:22:13.366Z,25.70
2023-10-06T13:24:20.355Z,25.80
2023-10-06T13:26:40.216Z,25.90
2023-10-06T13:28:46.938Z,26.00
2023-10-06T13:30:53.168Z,26.10
2023-10-06T13:32:59.074Z,26.10
2023-10-06T13:35:06.424Z,25.90
2023-10-06T13:37:10.806Z,25.70
2023-10-06T13:39:17.382Z,25.60
2023-10-06T13:41:21.653Z,25.60
2023-10-06T13:43:27.779Z,25.60
2023-10-06T13:45:32.775Z,25.70
2023-10-06T13:47:39.441Z,25.80
2023-10-06T13:49:43.831Z,25.80
2023-10-06T13:51:50.145Z,25.70
2023-10-06T13:53:53.910Z,25.40
2023-10-06T13:55:57.780Z,25.30
2023-10-06T13:58:03.738Z,25.20
2023-10-06T14:00:13.244Z,25.10
2023-10-06T14:02:18.142Z,25.00
2023-10-06T14:04:25.734Z,25.00
2023-10-06T14:06:30.179Z,25.00
2023-10-06T14:08:36.331Z,24.90
2023-10-06T14:10:40.860Z,24.90
2023-10-06T14:12:50.445Z,24.80
2023-10-06T14:15:21.375Z,24.90
2023-10-06T14:17:33.779Z,24.80
2023-10-06T14:19:37.725Z,24.90
2023-10-06T14:21:42.062Z,24.90
2023-10-06T14:23:51.070Z,25.10
2023-10-06T14:25:57.842Z,25.30
2023-10-06T14:28:01.795Z,25.50
2023-10-06T14:30:10.235Z,25.60
2023-10-06T14:32:19.889Z,25.70
2023-10-06T14:34:48.167Z,25.90
2023-10-06T14:36:59.158Z,26.00
2023-10-06T14:39:22.474Z,26.20
2023-10-06T14:41:43.748Z,26.40
2023-10-06T14:44:06.255Z,26.60
2023-10-06T14:46:11.795Z,26.80
2023-10-06T14:48:16.574Z,27.00
2023-10-06T14:50:21.275Z,26.90
2023-10-06T14:52:25.705Z,26.80
2023-10-06T14:54:33.183Z,26.60
2023-10-06T14:56:37.923Z,26.50
2023-10-06T14:58:42.121Z,26.30
2023-10-06T15:00:47.866Z,26.20
2023-10-06T15:02:52.235Z,26.20
2023-10-06T15:04:58.305Z,26.00
2023-10-06T15:07:03.142Z,26.20
2023-10-06T15:09:10.072Z,26.60
2023-10-06T15:11:16.113Z,27.00
2023-10-06T15:13:20.212Z,27.40
2023-10-06T15:15:26.529Z,27.60
2023-10-06T15:17:32.672Z,27.80
2023-10-06T15:19:37.971Z,28.10
2023-10-06T15:21:44.309Z,28.40
2023-10-06T15:23:54.699Z,28.40
2023-10-06T15:25:59.106Z,28.30
2023-10-06T15:28:05.164Z,28.00
2023-10-06T15:30:11.631Z,27.80
2023-10-06T15:32:15.753Z,27.60
2023-10-06T15:34:20.081Z,27.40
2023-10-06T15:36:25.333Z,27.10
2023-10-06T15:38:29.498Z,26.70
2023-10-06T15:40:35.276Z,26.40
2023-10-06T15:42:39.959Z,26.00
2023-10-06T15:44:45.305Z,25.90
2023-10-06T15:46:49.399Z,25.80
2023-10-06T15:48:57.630Z,25.70
2023-10-06T15:51:01.411Z,25.60
2023-10-06T15:53:05.758Z,25.40
2023-10-06T15:55:11.430Z,25.30
2023-10-06T15:57:15.246Z,25.10
2023-10-06T15:59:21.819Z,24.80
2023-10-06T16:01:28.226Z,24.70
2023-10-06T16:03:32.575Z,24.50
2023-10-06T16:05:36.895Z,24.40
2023-10-06T16:07:40.776Z,24.20
2023-10-06T16:09:44.657Z,24.10
2023-10-06T16:11:49.369Z,24.00
2023-10-06T16:13:52.898Z,23.80
2023-10-06T16:16:11.326Z,23.70
2023-10-06T16:18:17.487Z,23.60
2023-10-06T16:20:21.712Z,23.50
2023-10-06T16:22:25.351Z,23.40
2023-10-06T16:24:29.465Z,23.30
2023-10-06T16:26:32.255Z,23.10
2023-10-06T16:28:36.120Z,23.10
2023-10-06T16:30:41.729Z,22.90
2023-10-06T16:32:45.711Z,22.90
2023-10-06T16:34:50.905Z,22.80
2023-10-06T16:36:55.363Z,22.70
2023-10-06T16:39:00.647Z,22.60
2023-10-06T16:41:03.798Z,22.50
2023-10-06T16:43:09.503Z,22.40
2023-10-06T16:45:14.454Z,22.30
2023-10-06T16:47:18.954Z,22.20
2023-10-06T16:49:23.548Z,22.10
2023-10-06T16:51:29.564Z,22.00
2023-10-06T16:53:33.566Z,21.90
2023-10-06T16:55:37.669Z,21.70
2023-10-06T16:57:41.973Z,21.60
2023-10-06T16:59:45.930Z,21.60
2023-10-06T17:01:50.776Z,21.50
2023-10-06T17:03:54.757Z,21.40
2023-10-06T17:05:58.914Z,21.30
2023-10-06T17:08:04.051Z,21.20
2023-10-06T17:10:09.987Z,21.20
2023-10-06T17:12:13.818Z,21.10
2023-10-06T17:14:17.951Z,21.00
2023-10-06T17:16:23.534Z,20.90
2023-10-06T17:18:27.527Z,20.90
2023-10-06T17:20:31.767Z,20.80
2023-10-06T17:22:37.683Z,20.80
2023-10-06T17:24:43.840Z,20.70
2023-10-06T17:26:47.876Z,20.70
2023-10-06T17:28:51.583Z,20.60
2023-10-06T17:30:55.980Z,20.60
2023-10-06T17:32:59.920Z,20.50
2023-10-06T17:35:03.436Z,20.40
2023-10-06T17:39:19.015Z,20.30
2023-10-06T17:41:25.680Z,20.30
2023-10-06T17:43:30.854Z,20.30
2023-10-06T17:45:40.428Z,20.30
2023-10-06T17:47:45.238Z,20.20
2023-10-06T17:49:51.511Z,20.10
2023-10-06T17:51:55.790Z,20.00
2023-10-06T17:53:59.938Z,20.00
2023-10-06T17:56:07.517Z,19.90
2023-10-06T17:58:13.276Z,19.80
2023-10-06T18:00:17.870Z,19.80
2023-10-06T18:02:24.618Z,19.70
2023-10-06T18:04:30.282Z,19.70
2023-10-06T18:06:35.102Z,19.60
2023-10-06T18:08:39.168Z,19.70
2023-10-06T18:10:46.506Z,19.60
2023-10-06T18:12:50.834Z,19.50
2023-10-06T18:14:56.158Z,19.50
2023-10-06T18:17:00.822Z,19.50
2023-10-06T18:19:05.817Z,19.40
2023-10-06T18:21:09.267Z,19.40
2023-10-06T18:23:13.621Z,19.30
2023-10-06T18:25:18.848Z,19.30
2023-10-06T18:27:22.797Z,19.20
2023-10-06T18:29:27.370Z,19.20
2023-10-06T18:31:33.381Z,19.10
2023-10-06T18:33:39.797Z,19.10
2023-10-06T18:35:44.554Z,19.00
2023-10-06T18:37:49.019Z,19.00
2023-10-06T18:39:53.673Z,19.00
2023-10-06T18:41:58.231Z,19.00
2023-10-06T18:44:11.938Z,19.00
2023-10-06T18:46:16.649Z,19.00
2023-10-06T18:48:30.455Z,19.00
2023-10-06T18:50:36.370Z,19.00
2023-10-06T18:52:43.394Z,19.00
2023-10-06T18:54:48.200Z,19.00
2023-10-06T18:56:53.499Z,19.00
2023-10-06T18:58:58.058Z,19.00
2023-10-06T19:01:04.541Z,18.90
2023-10-06T19:03:08.554Z,18.90
2023-10-06T19:05:14.526Z,18.90
2023-10-06T19:07:21.990Z,18.80
2023-10-06T19:09:26.625Z,18.80
2023-10-06T19:11:30.739Z,18.80
2023-10-06T19:13:35.926Z,18.70
2023-10-06T19:15:43.401Z,18.70
2023-10-06T19:17:47.540Z,18.70
2023-10-06T19:19:53.904Z,18.60
2023-10-06T19:22:01.245Z,18.60
2023-10-06T19:24:06.600Z,18.60
2023-10-06T19:26:12.846Z,18.60
2023-10-06T19:28:18.610Z,18.60
2023-10-06T19:30:24.277Z,18.60
2023-10-06T19:32:28.931Z,18.50
2023-10-06T19:34:33.190Z,18.60
2023-10-06T19:36:37.913Z,18.50
2023-10-06T19:38:44.203Z,18.50
2023-10-06T19:40:48.981Z,18.40
2023-10-06T19:42:53.378Z,18.40
2023-10-06T19:44:57.341Z,18.40
2023-10-06T19:47:04.735Z,18.30
2023-10-06T19:49:09.239Z,18.20
2023-10-06T19:51:14.259Z,18.20
2023-10-06T19:53:17.613Z,18.10
2023-10-06T19:55:22.704Z,18.10
2023-10-06T19:57:30.159Z,18.00
2023-10-06T19:59:35.360Z,18.00
2023-10-06T20:01:39.323Z,18.00
2023-10-06T20:03:46.599Z,17.90
2023-10-06T20:05:50.340Z,18.00
2023-10-06T20:07:55.214Z,17.90
2023-10-06T20:10:00.123Z,17.80
2023-10-06T20:12:10.441Z,17.80
2023-10-06T20:14:14.040Z,17.70
2023-10-06T20:16:18.113Z,17.70
2023-10-06T20:18:21.985Z,17.60
2023-10-06T20:20:29.150Z,17.60
2023-10-06T20:22:37.459Z,17.60
2023-10-06T20:24:47.011Z,17.50
2023-10-06T20:26:51.903Z,17.50
2023-10-06T20:29:00.325Z,17.50
2023-10-06T20:31:05.584Z,17.50
2023-10-06T20:33:09.430Z,17.40
2023-10-06T20:35:14.232Z,17.40
2023-10-06T20:37:18.470Z,17.40
2023-10-06T20:39:23.725Z,17.40
2023-10-06T20:41:29.052Z,17.30
2023-10-06T20:43:35.004Z,17.30
2023-10-06T20:45:40.513Z,17.20
2023-10-06T20:47:46.566Z,17.20
2023-10-06T20:49:51.731Z,17.10
2023-10-06T20:51:55.990Z,17.10
2023-10-06T20:53:59.650Z,17.10
2023-10-06T20:56:04.976Z,17.10
2023-10-06T20:58:11.092Z,17.00
2023-10-06T21:00:14.497Z,16.90
2023-10-06T21:02:19.526Z,16.90
2023-10-06T21:04:23.464Z,16.90
2023-10-06T21:06:29.361Z,16.90
2023-10-06T21:08:33.085Z,16.80
2023-10-06T21:10:36.915Z,16.80
2023-10-06T21:12:40.442Z,16.80
2023-10-06T21:14:49.724Z,16.80
2023-10-06T21:16:58.086Z,16.70
2023-10-06T21:19:03.754Z,16.70
2023-10-06T21:21:07.831Z,16.70
2023-10-06T21:23:11.595Z,16.70
2023-10-06T21:25:16.250Z,16.70
2023-10-06T21:27:20.254Z,16.70
2023-10-06T21:29:24.690Z,16.70
2023-10-06T21:31:28.642Z,16.70
2023-10-06T21:33:32.429Z,16.70
2023-10-06T21:35:37.673Z,16.70
2023-10-06T21:37:41.861Z,16.80
2023-10-06T21:39:46.676Z,16.70
2023-10-06T21:41:51.189Z,16.70
2023-10-06T21:43:55.725Z,16.60
2023-10-06T21:46:03.267Z,16.50
2023-10-06T21:48:09.278Z,16.50
2023-10-06T21:50:14.290Z,16.40
2023-10-06T21:52:19.525Z,16.40
2023-10-06T21:54:23.543Z,16.40
2023-10-06T21:56:27.554Z,16.40
2023-10-06T21:58:34.589Z,16.30
2023-10-06T22:00:43.955Z,16.30
2023-10-06T22:02:48.248Z,16.30
2023-10-06T22:04:54.252Z,16.30
2023-10-06T22:06:57.959Z,16.20
2023-10-06T22:09:03.074Z,16.20
2023-10-06T22:11:06.934Z,16.30
2023-10-06T22:13:14.461Z,16.30
2023-10-06T22:15:18.310Z,16.40
2023-10-06T22:17:21.358Z,16.40
2023-10-06T22:19:25.342Z,16.40
2023-10-06T22:21:29.356Z,16.50
2023-10-06T22:23:34.420Z,16.40
2023-10-06T22:25:39.374Z,16.40
2023-10-06T22:27:44.201Z,16.40
2023-10-06T22:29:48.570Z,16.40
2023-10-06T22:31:52.560Z,16.40
2023-10-06T22:33:56.891Z,16.50
2023-10-06T22:36:00.542Z,16.40
2023-10-06T22:38:05.507Z,16.30
2023-10-06T22:40:18.330Z,16.30
2023-10-06T22:42:23.526Z,16.30
2023-10-06T22:44:27.079Z,16.30
2023-10-06T22:46:33.813Z,16.20
2023-10-06T22:48:40.010Z,16.20
2023-10-06T22:50:43.566Z,16.20
2023-10-06T22:52:48.145Z,16.20
2023-10-06T22:54:52.804Z,16.20
2023-10-06T22:56:56.425Z,16.20
2023-10-06T22:59:01.549Z,16.20
2023-10-06T23:01:05.442Z,16.20
2023-10-06T23:03:09.187Z,16.20
2023-10-06T23:05:18.625Z,16.20
2023-10-06T23:07:28.086Z,16.20
2023-10-06T23:09:41.089Z,16.20
2023-10-06T23:11:49.050Z,16.20
2023-10-06T23:14:01.978Z,16.10
2023-10-06T23:16:17.704Z,16.20
2023-10-06T23:18:27.777Z,16.10
2023-10-06T23:20:45.441Z,16.20
2023-10-06T23:23:01.393Z,16.10
2023-10-06T23:25:14.955Z,16.10
2023-10-06T23:27:26.736Z,16.00
2023-10-06T23:29:36.875Z,16.10
2023-10-06T23:31:49.229Z,16.10
2023-10-06T23:33:57.955Z,16.00
2023-10-06T23:36:08.947Z,16.00
2023-10-06T23:38:19.883Z,16.00
2023-10-06T23:40:36.663Z,15.90
2023-10-06T23:42:49.309Z,15.90
2023-10-06T23:44:59.445Z,15.90
2023-10-06T23:47:11.701Z,15.90
2023-10-06T23:49:22.156Z,15.80
2023-10-06T23:51:34.071Z,15.80
2023-10-06T23:53:45.400Z,15.70
2023-10-06T23:55:56.463Z,15.70
2023-10-06T23:58:09.292Z,15.70
